createdAt,value
2019-04-01T00:00:31.796Z,1023.90
2019-04-01T00:01:31.798Z,1023.92
2019-04-01T00:02:31.778Z,1023.88
2019-04-01T00:03:31.775Z,1023.91
2019-04-01T00:04:31.766Z,1023.93
2019-04-01T00:05:31.752Z,1023.98
2019-04-01T00:06:31.747Z,1023.96
2019-04-01T00:07:31.738Z,1024.00
2019-04-01T00:08:31.746Z,1024.05
2019-04-01T00:09:31.729Z,1024.03
2019-04-01T00:10:31.720Z,1024.01
2019-04-01T00:11:31.713Z,1024.00
2019-04-01T00:12:31.704Z,1023.98
2019-04-01T00:13:31.711Z,1023.98
2019-04-01T00:14:31.685Z,1024.04
2019-04-01T00:15:31.675Z,1024.05
2019-04-01T00:16:31.673Z,1024.06
2019-04-01T00:17:31.667Z,1024.10
2019-04-01T00:18:31.664Z,1024.07
2019-04-01T00:19:31.645Z,1024.07
2019-04-01T00:20:31.639Z,1024.08
2019-04-01T00:21:31.635Z,1024.08
2019-04-01T00:22:31.637Z,1024.07
2019-04-01T00:23:31.626Z,1024.06
2019-04-01T00:24:31.613Z,1024.09
2019-04-01T00:25:31.599Z,1024.04
2019-04-01T00:26:31.593Z,1024.06
2019-04-01T00:27:31.584Z,1024.05
2019-04-01T00:28:31.576Z,1024.02
2019-04-01T00:29:31.576Z,1024.07
2019-04-01T00:30:31.566Z,1024.05
2019-04-01T00:31:31.557Z,1024.08
2019-04-01T00:32:31.551Z,1024.08
2019-04-01T00:33:31.543Z,1024.05
2019-04-01T00:34:31.535Z,1024.03
2019-04-01T00:35:31.525Z,1024.08
2019-04-01T00:36:31.520Z,1024.03
2019-04-01T00:37:31.509Z,1024.03
2019-04-01T00:38:31.504Z,1024.05
2019-04-01T00:39:31.489Z,1024.05
2019-04-01T00:40:31.482Z,1024.05
2019-04-01T00:41:31.482Z,1024.03
2019-04-01T00:42:31.475Z,1024.03
2019-04-01T00:43:31.466Z,1024.02
2019-04-01T00:44:31.465Z,1024.03
2019-04-01T00:45:31.445Z,1024.07
2019-04-01T00:46:31.441Z,1024.05
2019-04-01T00:47:31.431Z,1024.08
2019-04-01T00:48:31.423Z,1024.11
2019-04-01T00:49:31.463Z,1024.12
2019-04-01T00:50:31.415Z,1024.08
2019-04-01T00:51:31.399Z,1024.11
2019-04-01T00:52:31.392Z,1024.14
2019-04-01T00:53:31.392Z,1024.12
2019-04-01T00:54:31.380Z,1024.08
2019-04-01T00:55:31.375Z,1024.13
2019-04-01T00:56:31.372Z,1024.10
2019-04-01T00:57:31.351Z,1024.10
2019-04-01T00:58:31.343Z,1024.11
2019-04-01T00:59:31.341Z,1024.05
2019-04-01T01:00:31.326Z,1024.10
2019-04-01T01:01:31.325Z,1024.08
2019-04-01T01:02:31.325Z,1024.08
2019-04-01T01:03:31.309Z,1024.07
2019-04-01T01:04:31.308Z,1024.02
2019-04-01T01:05:31.302Z,1024.05
2019-04-01T01:06:31.285Z,1024.09
2019-04-01T01:07:31.278Z,1024.07
2019-04-01T01:08:31.272Z,1024.09
2019-04-01T01:09:31.259Z,1024.06
2019-04-01T01:10:31.258Z,1024.07
2019-04-01T01:11:31.242Z,1024.09
2019-04-01T01:12:31.234Z,1024.09
2019-04-01T01:13:31.232Z,1024.06
2019-04-01T01:14:31.225Z,1024.04
2019-04-01T01:15:31.216Z,1024.05
2019-04-01T01:16:31.208Z,1024.04
2019-04-01T01:17:31.197Z,1024.06
2019-04-01T01:18:31.203Z,1024.08
2019-04-01T01:19:31.181Z,1024.05
2019-04-01T01:20:31.189Z,1024.06
2019-04-01T01:21:31.170Z,1024.08
2019-04-01T01:22:31.169Z,1024.06
2019-04-01T01:23:31.148Z,1024.04
2019-04-01T01:24:32.594Z,1024.09
2019-04-01T01:25:31.140Z,1024.09
2019-04-01T01:26:31.134Z,1024.10
2019-04-01T01:27:31.126Z,1024.09
2019-04-01T01:28:31.125Z,1024.11
2019-04-01T01:29:31.102Z,1024.11
2019-04-01T01:30:31.096Z,1024.10
2019-04-01T01:31:31.090Z,1024.08
2019-04-01T01:32:31.078Z,1024.08
2019-04-01T01:33:31.090Z,1024.06
2019-04-01T01:34:31.066Z,1024.07
2019-04-01T01:35:31.061Z,1024.05
2019-04-01T01:36:31.054Z,1024.08
2019-04-01T01:37:31.044Z,1024.07
2019-04-01T01:38:31.036Z,1024.11
2019-04-01T01:39:31.027Z,1024.11
2019-04-01T01:40:31.021Z,1024.15
2019-04-01T01:41:31.007Z,1024.15
2019-04-01T01:42:31.004Z,1024.09
2019-04-01T01:43:30.991Z,1024.10
2019-04-01T01:44:30.985Z,1024.13
2019-04-01T01:45:30.983Z,1024.17
2019-04-01T01:46:30.975Z,1024.14
2019-04-01T01:47:30.977Z,1024.14
2019-04-01T01:48:30.959Z,1024.12
2019-04-01T01:49:30.944Z,1024.20
2019-04-01T01:50:30.938Z,1024.16
2019-04-01T01:51:30.929Z,1024.16
2019-04-01T01:52:30.922Z,1024.18
2019-04-01T01:53:30.920Z,1024.20
2019-04-01T01:54:30.912Z,1024.22
2019-04-01T01:55:30.899Z,1024.21
2019-04-01T01:56:30.907Z,1024.20
2019-04-01T01:57:30.890Z,1024.19
2019-04-01T01:58:30.883Z,1024.21
2019-04-01T01:59:30.876Z,1024.22
2019-04-01T02:00:30.865Z,1024.21
2019-04-01T02:01:30.853Z,1024.21
2019-04-01T02:02:30.845Z,1024.21
2019-04-01T02:03:30.837Z,1024.24
2019-04-01T02:04:30.834Z,1024.24
2019-04-01T02:05:30.828Z,1024.23
2019-04-01T02:06:30.819Z,1024.19
2019-04-01T02:07:30.810Z,1024.24
2019-04-01T02:08:30.802Z,1024.27
2019-04-01T02:09:30.789Z,1024.27
2019-04-01T02:10:30.818Z,1024.30
2019-04-01T02:11:30.777Z,1024.35
2019-04-01T02:12:30.771Z,1024.31
2019-04-01T02:13:30.755Z,1024.34
2019-04-01T02:14:30.748Z,1024.31
2019-04-01T02:15:30.742Z,1024.28
2019-04-01T02:16:30.742Z,1024.29
2019-04-01T02:17:30.733Z,1024.29
2019-04-01T02:18:30.725Z,1024.29
2019-04-01T02:19:30.719Z,1024.32
2019-04-01T02:20:30.707Z,1024.30
2019-04-01T02:21:30.694Z,1024.33
2019-04-01T02:22:30.686Z,1024.38
2019-04-01T02:23:30.677Z,1024.34
2019-04-01T02:24:30.670Z,1024.36
2019-04-01T02:25:30.668Z,1024.34
2019-04-01T02:26:30.661Z,1024.33
2019-04-01T02:27:30.646Z,1024.31
2019-04-01T02:28:30.647Z,1024.35
2019-04-01T02:29:30.635Z,1024.36
2019-04-01T02:30:30.629Z,1024.34
2019-04-01T02:31:30.623Z,1024.36
2019-04-01T02:32:30.614Z,1024.37
2019-04-01T02:33:30.605Z,1024.36
2019-04-01T02:34:30.594Z,1024.37
2019-04-01T02:35:30.586Z,1024.38
2019-04-01T02:36:30.583Z,1024.36
2019-04-01T02:37:30.573Z,1024.32
2019-04-01T02:38:30.716Z,1024.34
2019-04-01T02:39:30.559Z,1024.35
2019-04-01T02:40:30.549Z,1024.32
2019-04-01T02:41:30.536Z,1024.32
2019-04-01T02:42:30.530Z,1024.34
2019-04-01T02:43:30.528Z,1024.35
2019-04-01T02:44:30.518Z,1024.37
2019-04-01T02:45:30.505Z,1024.37
2019-04-01T02:46:30.507Z,1024.38
2019-04-01T02:47:30.487Z,1024.37
2019-04-01T02:48:30.484Z,1024.37
2019-04-01T02:49:30.479Z,1024.31
2019-04-01T02:50:30.474Z,1024.30
2019-04-01T02:51:30.466Z,1024.32
2019-04-01T02:52:30.456Z,1024.36
2019-04-01T02:53:30.446Z,1024.40
2019-04-01T02:54:30.438Z,1024.40
2019-04-01T02:55:30.427Z,1024.43
2019-04-01T02:56:30.426Z,1024.43
2019-04-01T02:57:30.415Z,1024.41
2019-04-01T02:58:30.410Z,1024.36
2019-04-01T02:59:30.401Z,1024.41
2019-04-01T03:00:30.385Z,1024.38
2019-04-01T03:01:30.386Z,1024.40
2019-04-01T03:02:30.379Z,1024.36
2019-04-01T03:03:30.367Z,1024.33
2019-04-01T03:04:30.366Z,1024.34
2019-04-01T03:05:30.365Z,1024.34
2019-04-01T03:06:30.351Z,1024.34
2019-04-01T03:07:30.329Z,1024.33
2019-04-01T03:08:30.335Z,1024.36
2019-04-01T03:09:30.324Z,1024.39
2019-04-01T03:10:30.314Z,1024.41
2019-04-01T03:11:30.356Z,1024.38
2019-04-01T03:12:30.299Z,1024.37
2019-04-01T03:13:30.301Z,1024.40
2019-04-01T03:14:30.280Z,1024.39
2019-04-01T03:15:30.281Z,1024.32
2019-04-01T03:16:30.272Z,1024.35
2019-04-01T03:17:30.256Z,1024.35
2019-04-01T03:18:30.243Z,1024.36
2019-04-01T03:19:30.237Z,1024.39
2019-04-01T03:20:30.230Z,1024.40
2019-04-01T03:21:30.228Z,1024.41
2019-04-01T03:22:30.294Z,1024.36
2019-04-01T03:23:30.209Z,1024.39
2019-04-01T03:24:30.206Z,1024.33
2019-04-01T03:25:30.190Z,1024.33
2019-04-01T03:26:30.180Z,1024.34
2019-04-01T03:27:30.184Z,1024.34
2019-04-01T03:28:30.166Z,1024.41
2019-04-01T03:29:30.161Z,1024.38
2019-04-01T03:30:30.473Z,1024.34
2019-04-01T03:31:30.164Z,1024.37
2019-04-01T03:32:30.132Z,1024.34
2019-04-01T03:33:30.161Z,1024.35
2019-04-01T03:34:30.123Z,1024.34
2019-04-01T03:35:30.125Z,1024.32
2019-04-01T03:36:30.120Z,1024.35
2019-04-01T03:37:30.097Z,1024.34
2019-04-01T03:38:30.087Z,1024.33
2019-04-01T03:39:30.083Z,1024.36
2019-04-01T03:40:30.073Z,1024.39
2019-04-01T03:41:30.068Z,1024.35
2019-04-01T03:42:30.070Z,1024.37
2019-04-01T03:43:30.061Z,1024.33
2019-04-01T03:44:30.045Z,1024.30
2019-04-01T03:45:30.026Z,1024.31
2019-04-01T03:46:30.028Z,1024.37
2019-04-01T03:47:30.016Z,1024.33
2019-04-01T03:48:30.010Z,1024.37
2019-04-01T03:49:29.995Z,1024.38
2019-04-01T03:50:29.992Z,1024.34
2019-04-01T03:51:29.981Z,1024.41
2019-04-01T03:52:29.984Z,1024.32
2019-04-01T03:53:29.972Z,1024.29
2019-04-01T03:54:30.048Z,1024.30
2019-04-01T03:55:29.951Z,1024.32
2019-04-01T03:56:29.940Z,1024.30
2019-04-01T03:57:29.952Z,1024.27
2019-04-01T03:58:29.934Z,1024.29
2019-04-01T03:59:29.921Z,1024.33
2019-04-01T04:00:29.915Z,1024.34
2019-04-01T04:01:30.626Z,1024.32
2019-04-01T04:02:29.991Z,1024.32
2019-04-01T04:03:29.911Z,1024.34
2019-04-01T04:04:29.887Z,1024.33
2019-04-01T04:05:29.871Z,1024.34
2019-04-01T04:06:29.864Z,1024.31
2019-04-01T04:07:29.863Z,1024.38
2019-04-01T04:08:29.850Z,1024.40
2019-04-01T04:09:29.843Z,1024.38
2019-04-01T04:10:29.837Z,1024.31
2019-04-01T04:11:29.830Z,1024.33
2019-04-01T04:12:29.833Z,1024.32
2019-04-01T04:13:29.807Z,1024.38
2019-04-01T04:14:29.802Z,1024.30
2019-04-01T04:15:29.792Z,1024.30
2019-04-01T04:16:29.790Z,1024.35
2019-04-01T04:17:29.789Z,1024.34
2019-04-01T04:18:29.775Z,1024.36
2019-04-01T04:19:29.765Z,1024.33
2019-04-01T04:20:29.755Z,1024.37
2019-04-01T04:21:29.759Z,1024.40
2019-04-01T04:22:29.744Z,1024.41
2019-04-01T04:23:29.737Z,1024.40
2019-04-01T04:24:29.730Z,1024.38
2019-04-01T04:25:29.721Z,1024.39
2019-04-01T04:26:29.707Z,1024.35
2019-04-01T04:27:29.704Z,1024.37
2019-04-01T04:28:29.694Z,1024.39
2019-04-01T04:29:29.692Z,1024.38
2019-04-01T04:30:29.740Z,1024.33
2019-04-01T04:31:29.675Z,1024.33
2019-04-01T04:32:29.667Z,1024.34
2019-04-01T04:33:29.653Z,1024.32
2019-04-01T04:34:29.649Z,1024.36
2019-04-01T04:35:29.646Z,1024.34
2019-04-01T04:36:29.652Z,1024.36
2019-04-01T04:37:29.627Z,1024.39
2019-04-01T04:38:29.619Z,1024.41
2019-04-01T04:39:29.615Z,1024.39
2019-04-01T04:40:29.603Z,1024.38
2019-04-01T04:41:29.597Z,1024.42
2019-04-01T04:42:29.590Z,1024.46
2019-04-01T04:43:29.580Z,1024.46
2019-04-01T04:44:29.574Z,1024.49
2019-04-01T04:45:29.567Z,1024.46
2019-04-01T04:46:29.558Z,1024.47
2019-04-01T04:47:29.545Z,1024.47
2019-04-01T04:48:29.538Z,1024.52
2019-04-01T04:49:29.544Z,1024.51
2019-04-01T04:50:29.534Z,1024.46
2019-04-01T04:51:29.523Z,1024.52
2019-04-01T04:52:29.530Z,1024.53
2019-04-01T04:53:29.512Z,1024.54
2019-04-01T04:54:29.498Z,1024.52
2019-04-01T04:55:29.496Z,1024.55
2019-04-01T04:56:29.524Z,1024.58
2019-04-01T04:57:29.488Z,1024.59
2019-04-01T04:58:29.465Z,1024.55
2019-04-01T04:59:29.455Z,1024.53
2019-04-01T05:00:29.449Z,1024.54
2019-04-01T05:01:29.450Z,1024.55
2019-04-01T05:02:29.446Z,1024.55
2019-04-01T05:03:29.430Z,1024.57
2019-04-01T05:04:29.425Z,1024.59
2019-04-01T05:05:29.414Z,1024.61
2019-04-01T05:06:29.411Z,1024.61
2019-04-01T05:07:31.413Z,1024.62
2019-04-01T05:08:29.397Z,1024.63
2019-04-01T05:09:29.382Z,1024.59
2019-04-01T05:10:29.379Z,1024.59
2019-04-01T05:11:29.369Z,1024.61
2019-04-01T05:12:29.375Z,1024.64
2019-04-01T05:13:29.363Z,1024.65
2019-04-01T05:14:29.355Z,1024.66
2019-04-01T05:15:29.347Z,1024.64
2019-04-01T05:16:29.341Z,1024.65
2019-04-01T05:17:29.321Z,1024.66
2019-04-01T05:18:29.319Z,1024.68
2019-04-01T05:19:29.310Z,1024.66
2019-04-01T05:20:29.304Z,1024.65
2019-04-01T05:21:29.299Z,1024.71
2019-04-01T05:22:29.289Z,1024.71
2019-04-01T05:23:29.277Z,1024.72
2019-04-01T05:24:29.269Z,1024.78
2019-04-01T05:25:31.916Z,1024.78
2019-04-01T05:26:29.265Z,1024.81
2019-04-01T05:27:29.251Z,1024.86
2019-04-01T05:28:29.249Z,1024.83
2019-04-01T05:29:29.231Z,1024.83
2019-04-01T05:30:29.225Z,1024.82
2019-04-01T05:31:29.219Z,1024.89
2019-04-01T05:32:29.206Z,1024.88
2019-04-01T05:33:29.214Z,1024.91
2019-04-01T05:34:29.205Z,1024.91
2019-04-01T05:35:29.191Z,1024.86
2019-04-01T05:36:29.183Z,1024.85
2019-04-01T05:37:29.169Z,1024.86
2019-04-01T05:38:29.172Z,1024.87
2019-04-01T05:39:29.158Z,1024.86
2019-04-01T05:40:29.153Z,1024.95
2019-04-01T05:41:29.146Z,1024.87
2019-04-01T05:42:29.142Z,1024.91
2019-04-01T05:43:29.132Z,1024.89
2019-04-01T05:44:29.115Z,1024.91
2019-04-01T05:45:29.125Z,1024.90
2019-04-01T05:46:29.110Z,1024.94
2019-04-01T05:47:29.103Z,1024.91
2019-04-01T05:48:29.088Z,1024.93
2019-04-01T05:49:29.080Z,1024.90
2019-04-01T05:50:29.071Z,1024.95
2019-04-01T05:51:29.059Z,1024.95
2019-04-01T05:52:29.057Z,1024.95
2019-04-01T05:53:29.058Z,1024.94
2019-04-01T05:54:29.045Z,1024.92
2019-04-01T05:55:29.081Z,1025.02
2019-04-01T05:56:29.022Z,1024.99
2019-04-01T05:57:29.038Z,1025.03
2019-04-01T05:58:29.012Z,1024.99
2019-04-01T05:59:29.006Z,1025.01
2019-04-01T06:00:28.997Z,1024.99
2019-04-01T06:01:28.996Z,1024.99
2019-04-01T06:02:28.976Z,1025.01
2019-04-01T06:03:28.968Z,1024.98
2019-04-01T06:04:28.966Z,1025.02
2019-04-01T06:05:28.960Z,1025.05
2019-04-01T06:06:28.950Z,1025.08
2019-04-01T06:07:28.941Z,1025.09
2019-04-01T06:08:28.945Z,1025.12
2019-04-01T06:09:28.927Z,1025.10
2019-04-01T06:10:28.915Z,1025.10
2019-04-01T06:11:28.912Z,1025.07
2019-04-01T06:12:28.921Z,1025.09
2019-04-01T06:13:28.889Z,1025.05
2019-04-01T06:14:28.885Z,1025.08
2019-04-01T06:15:28.877Z,1025.11
2019-04-01T06:16:28.872Z,1025.17
2019-04-01T06:17:28.865Z,1025.12
2019-04-01T06:18:28.860Z,1025.08
2019-04-01T06:19:28.851Z,1025.06
2019-04-01T06:20:28.851Z,1025.14
2019-04-01T06:21:28.832Z,1025.09
2019-04-01T06:22:28.835Z,1025.11
2019-04-01T06:23:28.815Z,1025.14
2019-04-01T06:24:28.806Z,1025.09
2019-04-01T06:25:28.809Z,1025.14
2019-04-01T06:26:28.797Z,1025.15
2019-04-01T06:27:29.143Z,1025.16
2019-04-01T06:28:28.777Z,1025.17
2019-04-01T06:29:28.776Z,1025.22
2019-04-01T06:30:28.769Z,1025.16
2019-04-01T06:31:28.770Z,1025.22
2019-04-01T06:32:28.751Z,1025.17
2019-04-01T06:33:28.739Z,1025.24
2019-04-01T06:34:28.737Z,1025.20
2019-04-01T06:35:28.726Z,1025.18
2019-04-01T06:36:28.723Z,1025.20
2019-04-01T06:37:28.713Z,1025.22
2019-04-01T06:38:28.708Z,1025.21
2019-04-01T06:39:28.700Z,1025.21
2019-04-01T06:40:28.694Z,1025.17
2019-04-01T06:41:28.680Z,1025.15
2019-04-01T06:42:28.684Z,1025.17
2019-04-01T06:43:28.667Z,1025.21
2019-04-01T06:44:28.669Z,1025.28
2019-04-01T06:45:28.649Z,1025.22
2019-04-01T06:46:28.641Z,1025.25
2019-04-01T06:47:28.637Z,1025.24
2019-04-01T06:48:28.626Z,1025.24
2019-04-01T06:49:28.627Z,1025.28
2019-04-01T06:50:28.618Z,1025.34
2019-04-01T06:51:28.661Z,1025.27
2019-04-01T06:52:28.603Z,1025.31
2019-04-01T06:53:28.589Z,1025.28
2019-04-01T06:54:28.584Z,1025.28
2019-04-01T06:55:28.576Z,1025.30
2019-04-01T06:56:28.565Z,1025.31
2019-04-01T06:57:28.564Z,1025.29
2019-04-01T06:58:28.566Z,1025.29
2019-04-01T06:59:28.594Z,1025.26
2019-04-01T07:00:28.538Z,1025.30
2019-04-01T07:01:28.534Z,1025.39
2019-04-01T07:02:28.527Z,1025.34
2019-04-01T07:03:28.522Z,1025.32
2019-04-01T07:04:28.516Z,1025.35
2019-04-01T07:05:28.497Z,1025.31
2019-04-01T07:06:28.495Z,1025.37
2019-04-01T07:07:28.487Z,1025.34
2019-04-01T07:08:28.477Z,1025.34
2019-04-01T07:09:28.485Z,1025.36
2019-04-01T07:10:28.473Z,1025.39
2019-04-01T07:11:28.463Z,1025.41
2019-04-01T07:12:28.450Z,1025.43
2019-04-01T07:13:28.444Z,1025.37
2019-04-01T07:14:28.437Z,1025.41
2019-04-01T07:15:28.431Z,1025.39
2019-04-01T07:16:28.423Z,1025.38
2019-04-01T07:17:28.409Z,1025.36
2019-04-01T07:18:28.403Z,1025.42
2019-04-01T07:19:28.398Z,1025.41
2019-04-01T07:20:28.398Z,1025.39
2019-04-01T07:21:28.402Z,1025.40
2019-04-01T07:22:28.379Z,1025.36
2019-04-01T07:23:28.377Z,1025.38
2019-04-01T07:24:28.394Z,1025.37
2019-04-01T07:25:28.357Z,1025.40
2019-04-01T07:26:28.351Z,1025.39
2019-04-01T07:27:28.356Z,1025.41
2019-04-01T07:28:28.332Z,1025.43
2019-04-01T07:29:28.326Z,1025.36
2019-04-01T07:30:28.321Z,1025.34
2019-04-01T07:31:28.315Z,1025.35
2019-04-01T07:32:28.302Z,1025.33
2019-04-01T07:33:28.304Z,1025.36
2019-04-01T07:34:28.298Z,1025.35
2019-04-01T07:35:28.284Z,1025.38
2019-04-01T07:36:28.318Z,1025.34
2019-04-01T07:37:28.263Z,1025.33
2019-04-01T07:38:28.255Z,1025.34
2019-04-01T07:39:28.249Z,1025.26
2019-04-01T07:40:28.240Z,1025.29
2019-04-01T07:41:28.243Z,1025.28
2019-04-01T07:42:28.231Z,1025.26
2019-04-01T07:43:28.224Z,1025.27
2019-04-01T07:44:28.224Z,1025.32
2019-04-01T07:45:28.205Z,1025.33
2019-04-01T07:46:28.199Z,1025.33
2019-04-01T07:47:28.197Z,1025.30
2019-04-01T07:48:28.287Z,1025.32
2019-04-01T07:49:28.204Z,1025.35
2019-04-01T07:50:28.168Z,1025.38
2019-04-01T07:51:28.161Z,1025.40
2019-04-01T07:52:28.157Z,1025.39
2019-04-01T07:53:28.182Z,1025.38
2019-04-01T07:54:28.143Z,1025.34
2019-04-01T07:55:29.350Z,1025.38
2019-04-01T07:56:28.143Z,1025.37
2019-04-01T07:57:28.116Z,1025.39
2019-04-01T07:58:28.126Z,1025.40
2019-04-01T07:59:28.100Z,1025.42
2019-04-01T08:00:28.094Z,1025.40
2019-04-01T08:01:28.097Z,1025.42
2019-04-01T08:02:28.085Z,1025.40
2019-04-01T08:03:28.080Z,1025.42
2019-04-01T08:04:28.066Z,1025.41
2019-04-01T08:05:28.063Z,1025.42
2019-04-01T08:06:28.057Z,1025.47
2019-04-01T08:07:28.049Z,1025.40
2019-04-01T08:08:28.053Z,1025.46
2019-04-01T08:09:28.029Z,1025.43
2019-04-01T08:10:28.023Z,1025.47
2019-04-01T08:11:28.117Z,1025.48
2019-04-01T08:12:28.138Z,1025.48
2019-04-01T08:13:28.003Z,1025.45
2019-04-01T08:14:28.002Z,1025.44
2019-04-01T08:15:27.997Z,1025.50
2019-04-01T08:16:28.011Z,1025.47
2019-04-01T08:17:27.968Z,1025.46
2019-04-01T08:18:27.966Z,1025.43
2019-04-01T08:19:27.978Z,1025.44
2019-04-01T08:20:28.036Z,1025.42
2019-04-01T08:21:27.941Z,1025.45
2019-04-01T08:22:27.943Z,1025.52
2019-04-01T08:23:27.938Z,1025.45
2019-04-01T08:24:27.921Z,1025.44
2019-04-01T08:25:27.918Z,1025.39
2019-04-01T08:26:27.920Z,1025.39
2019-04-01T08:27:27.902Z,1025.39
2019-04-01T08:28:27.941Z,1025.42
2019-04-01T08:29:30.568Z,1025.36
2019-04-01T08:30:27.875Z,1025.35
2019-04-01T08:31:27.867Z,1025.33
2019-04-01T08:32:27.861Z,1025.31
2019-04-01T08:33:27.867Z,1025.34
2019-04-01T08:34:27.855Z,1025.35
2019-04-01T08:35:27.838Z,1025.36
2019-04-01T08:36:27.833Z,1025.38
2019-04-01T08:37:27.828Z,1025.41
2019-04-01T08:38:27.821Z,1025.38
2019-04-01T08:39:27.815Z,1025.33
2019-04-01T08:40:27.814Z,1025.40
2019-04-01T08:41:27.794Z,1025.37
2019-04-01T08:42:27.787Z,1025.36
2019-04-01T08:43:27.782Z,1025.40
2019-04-01T08:44:27.782Z,1025.40
2019-04-01T08:45:27.774Z,1025.41
2019-04-01T08:46:27.765Z,1025.39
2019-04-01T08:47:27.759Z,1025.38
2019-04-01T08:48:27.748Z,1025.34
2019-04-01T08:49:27.736Z,1025.37
2019-04-01T08:50:27.732Z,1025.32
2019-04-01T08:51:27.729Z,1025.32
2019-04-01T08:52:27.719Z,1025.30
2019-04-01T08:53:27.710Z,1025.33
2019-04-01T08:54:27.700Z,1025.32
2019-04-01T08:55:27.693Z,1025.36
2019-04-01T08:56:27.685Z,1025.30
2019-04-01T08:57:27.682Z,1025.33
2019-04-01T08:58:27.681Z,1025.35
2019-04-01T08:59:27.674Z,1025.32
2019-04-01T09:00:27.678Z,1025.31
2019-04-01T09:01:35.156Z,1025.40
2019-04-01T09:02:27.639Z,1025.34
2019-04-01T09:03:27.639Z,1025.34
2019-04-01T09:04:27.666Z,1025.32
2019-04-01T09:05:27.626Z,1025.42
2019-04-01T09:06:31.098Z,1025.37
2019-04-01T09:07:27.607Z,1025.37
2019-04-01T09:08:27.600Z,1025.40
2019-04-01T09:09:27.599Z,1025.35
2019-04-01T09:10:27.593Z,1025.33
2019-04-01T09:11:27.580Z,1025.35
2019-04-01T09:12:27.581Z,1025.35
2019-04-01T09:13:27.561Z,1025.31
2019-04-01T09:14:27.555Z,1025.29
2019-04-01T09:15:27.547Z,1025.30
2019-04-01T09:16:27.538Z,1025.28
2019-04-01T09:17:27.542Z,1025.29
2019-04-01T09:18:27.529Z,1025.23
2019-04-01T09:19:27.525Z,1025.23
2019-04-01T09:20:27.515Z,1025.17
2019-04-01T09:21:27.502Z,1025.16
2019-04-01T09:22:27.496Z,1025.14
2019-04-01T09:23:27.492Z,1025.15
2019-04-01T09:24:27.485Z,1025.13
2019-04-01T09:25:27.475Z,1025.15
2019-04-01T09:26:27.469Z,1025.12
2019-04-01T09:27:27.460Z,1025.11
2019-04-01T09:28:27.453Z,1025.12
2019-04-01T09:29:27.451Z,1025.11
2019-04-01T09:30:27.444Z,1025.08
2019-04-01T09:31:27.439Z,1025.09
2019-04-01T09:32:27.428Z,1025.08
2019-04-01T09:33:27.420Z,1025.10
2019-04-01T09:34:27.411Z,1025.02
2019-04-01T09:35:27.402Z,1025.00
2019-04-01T09:36:27.397Z,1025.07
2019-04-01T09:37:27.414Z,1025.09
2019-04-01T09:38:27.386Z,1025.04
2019-04-01T09:39:27.381Z,1024.96
2019-04-01T09:40:27.374Z,1025.01
2019-04-01T09:41:27.364Z,1025.00
2019-04-01T09:42:27.356Z,1024.95
2019-04-01T09:43:27.349Z,1025.01
2019-04-01T09:44:36.591Z,1025.02
2019-04-01T09:45:27.331Z,1024.99
2019-04-01T09:46:27.324Z,1024.99
2019-04-01T09:47:27.322Z,1024.98
2019-04-01T09:48:27.310Z,1025.01
2019-04-01T09:49:27.308Z,1024.97
2019-04-01T09:50:27.299Z,1024.98
2019-04-01T09:51:27.290Z,1024.95
2019-04-01T09:52:27.283Z,1024.93
2019-04-01T09:53:27.274Z,1024.92
2019-04-01T09:54:27.269Z,1024.94
2019-04-01T09:55:27.267Z,1024.89
2019-04-01T09:56:27.279Z,1024.86
2019-04-01T09:57:27.246Z,1024.85
2019-04-01T09:58:27.243Z,1024.84
2019-04-01T09:59:27.230Z,1024.76
2019-04-01T10:00:27.224Z,1024.75
2019-04-01T10:01:27.226Z,1024.76
2019-04-01T10:02:32.174Z,1024.74
2019-04-01T10:03:27.208Z,1024.74
2019-04-01T10:04:27.198Z,1024.73
2019-04-01T10:05:27.187Z,1024.72
2019-04-01T10:06:27.179Z,1024.69
2019-04-01T10:07:27.190Z,1024.71
2019-04-01T10:08:41.559Z,1024.75
2019-04-01T10:09:27.168Z,1024.73
2019-04-01T10:10:27.160Z,1024.71
2019-04-01T10:11:27.141Z,1024.75
2019-04-01T10:12:27.140Z,1024.73
2019-04-01T10:13:27.148Z,1024.68
2019-04-01T10:14:27.127Z,1024.67
2019-04-01T10:15:27.119Z,1024.68
2019-04-01T10:16:27.112Z,1024.68
2019-04-01T10:17:27.102Z,1024.67
2019-04-01T10:18:27.092Z,1024.58
2019-04-01T10:19:27.087Z,1024.62
2019-04-01T10:20:27.096Z,1024.64
2019-04-01T10:21:27.075Z,1024.64
2019-04-01T10:22:27.084Z,1024.59
2019-04-01T10:23:27.064Z,1024.61
2019-04-01T10:24:27.056Z,1024.61
2019-04-01T10:25:27.045Z,1024.62
2019-04-01T10:26:27.036Z,1024.61
2019-04-01T10:27:27.036Z,1024.53
2019-04-01T10:28:27.027Z,1024.57
2019-04-01T10:29:27.015Z,1024.55
2019-04-01T10:30:27.011Z,1024.58
2019-04-01T10:31:26.998Z,1024.58
2019-04-01T10:32:27.003Z,1024.56
2019-04-01T10:33:27.013Z,1024.56
2019-04-01T10:34:27.002Z,1024.53
2019-04-01T10:35:26.982Z,1024.52
2019-04-01T10:36:26.967Z,1024.48
2019-04-01T10:37:26.956Z,1024.45
2019-04-01T10:38:26.960Z,1024.46
2019-04-01T10:39:26.939Z,1024.38
2019-04-01T10:40:26.933Z,1024.38
2019-04-01T10:41:26.933Z,1024.45
2019-04-01T10:42:26.927Z,1024.39
2019-04-01T10:43:26.915Z,1024.40
2019-04-01T10:44:26.906Z,1024.36
2019-04-01T10:45:26.904Z,1024.40
2019-04-01T10:46:26.903Z,1024.37
2019-04-01T10:47:26.923Z,1024.40
2019-04-01T10:48:26.945Z,1024.39
2019-04-01T10:49:26.942Z,1024.41
2019-04-01T10:50:26.904Z,1024.29
2019-04-01T10:51:26.872Z,1024.35
2019-04-01T10:52:26.851Z,1024.28
2019-04-01T10:53:26.876Z,1024.31
2019-04-01T10:54:26.905Z,1024.25
2019-04-01T10:55:26.840Z,1024.22
2019-04-01T10:56:26.886Z,1024.24
2019-04-01T10:57:26.824Z,1024.20
2019-04-01T10:58:26.864Z,1024.24
2019-04-01T10:59:26.833Z,1024.24
2019-04-01T11:00:26.798Z,1024.24
2019-04-01T11:01:26.821Z,1024.26
2019-04-01T11:02:26.812Z,1024.18
2019-04-01T11:03:26.849Z,1024.19
2019-04-01T11:04:26.801Z,1024.19
2019-04-01T11:05:26.809Z,1024.13
2019-04-01T11:06:26.777Z,1024.13
2019-04-01T11:07:26.766Z,1024.11
2019-04-01T11:08:26.759Z,1024.16
2019-04-01T11:09:38.220Z,1024.16
2019-04-01T11:10:26.724Z,1024.21
2019-04-01T11:11:27.378Z,1024.11
2019-04-01T11:12:26.709Z,1024.13
2019-04-01T11:13:26.707Z,1024.15
2019-04-01T11:14:26.703Z,1024.14
2019-04-01T11:15:26.687Z,1024.09
2019-04-01T11:16:26.678Z,1024.06
2019-04-01T11:17:26.680Z,1024.03
2019-04-01T11:18:26.675Z,1024.01
2019-04-01T11:19:26.660Z,1024.06
2019-04-01T11:20:26.653Z,1024.02
2019-04-01T11:21:26.647Z,1024.01
2019-04-01T11:22:26.642Z,1024.02
2019-04-01T11:23:26.640Z,1023.97
2019-04-01T11:24:26.623Z,1023.95
2019-04-01T11:25:26.618Z,1023.96
2019-04-01T11:26:26.619Z,1023.94
2019-04-01T11:27:26.631Z,1023.90
2019-04-01T11:28:26.605Z,1023.84
2019-04-01T11:29:26.591Z,1023.82
2019-04-01T11:30:26.580Z,1023.87
2019-04-01T11:31:26.595Z,1023.86
2019-04-01T11:32:26.626Z,1023.86
2019-04-01T11:33:26.574Z,1023.83
2019-04-01T11:34:26.708Z,1023.83
2019-04-01T11:35:26.592Z,1023.88
2019-04-01T11:36:26.592Z,1023.83
2019-04-01T11:37:26.536Z,1023.78
2019-04-01T11:38:26.565Z,1023.73
2019-04-01T11:39:26.555Z,1023.72
2019-04-01T11:40:26.553Z,1023.71
2019-04-01T11:41:26.508Z,1023.72
2019-04-01T11:42:26.535Z,1023.74
2019-04-01T11:43:26.507Z,1023.71
2019-04-01T11:44:26.526Z,1023.72
2019-04-01T11:45:26.495Z,1023.68
2019-04-01T11:46:26.539Z,1023.73
2019-04-01T11:47:26.474Z,1023.69
2019-04-01T11:48:26.466Z,1023.64
2019-04-01T11:49:26.457Z,1023.73
2019-04-01T11:50:26.464Z,1023.64
2019-04-01T11:51:33.037Z,1023.67
2019-04-01T11:52:26.458Z,1023.68
2019-04-01T11:53:26.416Z,1023.58
2019-04-01T11:54:26.410Z,1023.61
2019-04-01T11:55:26.400Z,1023.67
2019-04-01T11:56:26.848Z,1023.54
2019-04-01T11:57:26.399Z,1023.52
2019-04-01T11:58:26.388Z,1023.52
2019-04-01T11:59:26.381Z,1023.45
2019-04-01T12:00:26.462Z,1023.48
2019-04-01T12:01:26.359Z,1023.47
2019-04-01T12:02:26.354Z,1023.47
2019-04-01T12:03:26.354Z,1023.47
2019-04-01T12:04:26.344Z,1023.43
2019-04-01T12:05:26.330Z,1023.49